Time;durP1;ratioP1;P1;durP2;ratioP2;P2;SDS_P1;SDS_P2;PMS_P1;PMS_P2;Temp;Humidity;BMP_temperature;BMP_pressure;BME280_temperature;BME280_humidity;BME280_pressure;Samples;Min_cycle;Max_cycle;Signal;HPM_P1;HPM_P2
2020/10/27 00:00:47;;;;;;;0.5;0.5;;;;;;;;;;;;;
2020/10/27 00:03:12;;;;;;;0.7;0.6;;;;;;;;;;;;;
2020/10/27 00:05:41;;;;;;;0.4;0.4;;;;;;;;;;;;;
2020/10/27 00:08:06;;;;;;;2.3;0.2;;;;;;;;;;;;;
2020/10/27 00:10:31;;;;;;;0.3;0.3;;;;;;;;;;;;;
2020/10/27 00:12:56;;;;;;;1.1;0.6;;;;;;;;;;;;;
2020/10/27 00:15:23;;;;;;;0.4;0.4;;;;;;;;;;;;;
2020/10/27 00:17:48;;;;;;;0.3;0.3;;;;;;;;;;;;;
2020/10/27 00:20:16;;;;;;;0.6;0.4;;;;;;;;;;;;;
2020/10/27 00:22:41;;;;;;;0.5;0.5;;;;;;;;;;;;;
2020/10/27 00:25:06;;;;;;;0.6;0.6;;;;;;;;;;;;;
2020/10/27 00:27:32;;;;;;;0.9;0.6;;;;;;;;;;;;;
2020/10/27 00:29:57;;;;;;;0.5;0.4;;;;;;;;;;;;;
2020/10/27 00:32:22;;;;;;;0.4;0.4;;;;;;;;;;;;;
2020/10/27 00:34:48;;;;;;;0.4;0.4;;;;;;;;;;;;;
2020/10/27 00:37:13;;;;;;;0.3;0.3;;;;;;;;;;;;;
2020/10/27 00:39:40;;;;;;;0.4;0.4;;;;;;;;;;;;;
2020/10/27 00:42:05;;;;;;;0.2;0.2;;;;;;;;;;;;;
2020/10/27 00:44:31;;;;;;;0.3;0.3;;;;;;;;;;;;;
2020/10/27 00:46:57;;;;;;;0.8;0.4;;;;;;;;;;;;;
2020/10/27 00:49:22;;;;;;;0.4;0.4;;;;;;;;;;;;;
2020/10/27 00:51:47;;;;;;;3.8;0.4;;;;;;;;;;;;;
2020/10/27 00:54:14;;;;;;;0.3;0.3;;;;;;;;;;;;;
2020/10/27 00:56:39;;;;;;;0.4;0.4;;;;;;;;;;;;;
2020/10/27 00:59:05;;;;;;;0.4;0.4;;;;;;;;;;;;;
2020/10/27 01:01:31;;;;;;;0.6;0.5;;;;;;;;;;;;;
2020/10/27 01:04:01;;;;;;;0.6;0.4;;;;;;;;;;;;;
2020/10/27 01:06:25;;;;;;;0.7;0.6;;;;;;;;;;;;;
2020/10/27 01:08:51;;;;;;;0.9;0.6;;;;;;;;;;;;;
2020/10/27 01:11:15;;;;;;;0.7;0.4;;;;;;;;;;;;;
2020/10/27 01:13:42;;;;;;;0.9;0.6;;;;;;;;;;;;;
2020/10/27 01:16:07;;;;;;;1.1;0.7;;;;;;;;;;;;;
2020/10/27 01:18:32;;;;;;;0.7;0.6;;;;;;;;;;;;;
2020/10/27 01:20:58;;;;;;;1;0.3;;;;;;;;;;;;;
2020/10/27 01:23:25;;;;;;;0.5;0.5;;;;;;;;;;;;;
2020/10/27 01:25:50;;;;;;;0.5;0.4;;;;;;;;;;;;;
2020/10/27 01:28:16;;;;;;;0.5;0.5;;;;;;;;;;;;;
2020/10/27 01:30:41;;;;;;;0.5;0.4;;;;;;;;;;;;;
2020/10/27 01:33:08;;;;;;;0.7;0.5;;;;;;;;;;;;;
2020/10/27 01:35:33;;;;;;;1.2;0.3;;;;;;;;;;;;;
2020/10/27 01:37:58;;;;;;;0.5;0.3;;;;;;;;;;;;;
2020/10/27 01:40:24;;;;;;;0.6;0.6;;;;;;;;;;;;;
2020/10/27 01:42:51;;;;;;;0.8;0.5;;;;;;;;;;;;;
2020/10/27 01:45:19;;;;;;;0.6;0.6;;;;;;;;;;;;;
2020/10/27 01:47:44;;;;;;;0.6;0.6;;;;;;;;;;;;;
2020/10/27 01:50:09;;;;;;;0.8;0.7;;;;;;;;;;;;;
2020/10/27 01:52:35;;;;;;;0.5;0.5;;;;;;;;;;;;;
2020/10/27 01:55:00;;;;;;;0.5;0.5;;;;;;;;;;;;;
2020/10/27 01:57:27;;;;;;;1.3;0.8;;;;;;;;;;;;;
2020/10/27 01:59:52;;;;;;;0.7;0.6;;;;;;;;;;;;;
2020/10/27 02:02:17;;;;;;;0.7;0.6;;;;;;;;;;;;;
2020/10/27 02:04:43;;;;;;;0.5;0.5;;;;;;;;;;;;;
2020/10/27 02:07:09;;;;;;;1.2;0.9;;;;;;;;;;;;;
2020/10/27 02:09:33;;;;;;;0.7;0.6;;;;;;;;;;;;;
2020/10/27 02:11:59;;;;;;;0.7;0.5;;;;;;;;;;;;;
2020/10/27 02:14:24;;;;;;;1.3;0.7;;;;;;;;;;;;;
2020/10/27 02:16:51;;;;;;;1;0.6;;;;;;;;;;;;;
2020/10/27 02:19:16;;;;;;;0.7;0.5;;;;;;;;;;;;;
2020/10/27 02:21:42;;;;;;;0.7;0.5;;;;;;;;;;;;;
2020/10/27 02:24:07;;;;;;;2.1;0.9;;;;;;;;;;;;;
2020/10/27 02:26:34;;;;;;;0.7;0.7;;;;;;;;;;;;;
2020/10/27 02:28:58;;;;;;;0.7;0.6;;;;;;;;;;;;;
2020/10/27 02:31:25;;;;;;;0.7;0.6;;;;;;;;;;;;;
2020/10/27 02:33:50;;;;;;;0.5;0.5;;;;;;;;;;;;;
2020/10/27 02:36:17;;;;;;;0.9;0.5;;;;;;;;;;;;;
2020/10/27 02:38:42;;;;;;;0.4;0.3;;;;;;;;;;;;;
2020/10/27 02:41:07;;;;;;;0.6;0.5;;;;;;;;;;;;;
2020/10/27 02:43:32;;;;;;;0.3;0.3;;;;;;;;;;;;;
2020/10/27 02:46:01;;;;;;;0.3;0.3;;;;;;;;;;;;;
2020/10/27 02:48:26;;;;;;;0.7;0.5;;;;;;;;;;;;;
2020/10/27 02:50:51;;;;;;;1.7;0.7;;;;;;;;;;;;;
2020/10/27 02:53:16;;;;;;;1.5;0.4;;;;;;;;;;;;;
2020/10/27 02:55:43;;;;;;;0.7;0.6;;;;;;;;;;;;;
2020/10/27 02:58:08;;;;;;;0.5;0.5;;;;;;;;;;;;;
2020/10/27 03:00:50;;;;;;;0.6;0.6;;;;;;;;;;;;;
2020/10/27 03:03:02;;;;;;;0.6;0.6;;;;;;;;;;;;;
2020/10/27 03:05:27;;;;;;;0.5;0.5;;;;;;;;;;;;;
2020/10/27 03:07:53;;;;;;;0.6;0.5;;;;;;;;;;;;;
2020/10/27 03:10:26;;;;;;;0.5;0.4;;;;;;;;;;;;;
2020/10/27 03:12:46;;;;;;;0.6;0.5;;;;;;;;;;;;;
2020/10/27 03:15:19;;;;;;;0.4;0.4;;;;;;;;;;;;;
2020/10/27 03:17:45;;;;;;;0.7;0.5;;;;;;;;;;;;;
2020/10/27 03:19:59;;;;;;;0.6;0.5;;;;;;;;;;;;;
2020/10/27 03:22:24;;;;;;;0.6;0.6;;;;;;;;;;;;;
2020/10/27 03:24:49;;;;;;;1.1;0.8;;;;;;;;;;;;;
2020/10/27 03:27:14;;;;;;;0.4;0.4;;;;;;;;;;;;;
2020/10/27 03:29:39;;;;;;;0.6;0.6;;;;;;;;;;;;;
2020/10/27 03:32:04;;;;;;;0.6;0.6;;;;;;;;;;;;;
2020/10/27 03:34:29;;;;;;;0.3;0.3;;;;;;;;;;;;;
2020/10/27 03:36:56;;;;;;;0.5;0.5;;;;;;;;;;;;;
2020/10/27 03:39:21;;;;;;;2;0.4;;;;;;;;;;;;;
2020/10/27 03:41:47;;;;;;;0.5;0.5;;;;;;;;;;;;;
2020/10/27 03:44:12;;;;;;;0.9;0.5;;;;;;;;;;;;;
2020/10/27 03:46:38;;;;;;;0.3;0.3;;;;;;;;;;;;;
2020/10/27 03:49:04;;;;;;;1.3;0.6;;;;;;;;;;;;;
2020/10/27 03:51:30;;;;;;;0.5;0.4;;;;;;;;;;;;;
2020/10/27 03:53:55;;;;;;;0.5;0.4;;;;;;;;;;;;;
2020/10/27 03:56:21;;;;;;;0.3;0.3;;;;;;;;;;;;;
2020/10/27 03:58:46;;;;;;;0.6;0.4;;;;;;;;;;;;;
2020/10/27 04:02:33;;;;;;;0.3;0.3;;;;;;;5.07;87.88672;931.9238;;;;
2020/10/27 04:05:03;;;;;;;0.2;0.2;;;;;;;5.04;88.20605;931.8751;;;;
2020/10/27 04:07:29;;;;;;;0.3;0.3;;;;;;;5.14;87.76465;931.9203;;;;
2020/10/27 04:09:54;;;;;;;0.2;0.2;;;;;;;5.22;87.80566;931.9728;;;;
2020/10/27 04:12:20;;;;;;;0.1;0.1;;;;;;;5.18;87.22168;931.9211;;;;
2020/10/27 04:14:52;;;;;;;0.1;0.1;;;;;;;5.2;87.37305;931.9311;;;;
2020/10/27 04:17:22;;;;;;;0.3;0.3;;;;;;;5.34;87.19824;931.9127;;;;
2020/10/27 04:19:52;;;;;;;0.3;0.3;;;;;;;5.34;88.33691;931.9158;;;;
2020/10/27 04:22:18;;;;;;;0.3;0.3;;;;;;;5.47;87.12207;932.0006;;;;
2020/10/27 04:24:43;;;;;;;0.3;0.3;;;;;;;5.31;86.97852;932.104;;;;
2020/10/27 04:27:08;;;;;;;0.1;0.1;;;;;;;5.12;87.62695;932.1655;;;;
2020/10/27 04:29:37;;;;;;;0.4;0.4;;;;;;;4.83;89.20215;932.2634;;;;
2020/10/27 04:32:08;;;;;;;0.3;0.3;;;;;;;4.98;89.15332;932.2175;;;;
2020/10/27 04:34:33;;;;;;;1;0.5;;;;;;;5;89.06641;932.1234;;;;
2020/10/27 04:37:01;;;;;;;0.6;0.4;;;;;;;4.95;88.82031;932.1262;;;;
2020/10/27 04:39:31;;;;;;;1.2;0.5;;;;;;;4.97;89.03809;932.1212;;;;
2020/10/27 04:41:58;;;;;;;1.7;0.9;;;;;;;4.97;89.44629;932.0352;;;;
2020/10/27 04:44:23;;;;;;;1.6;0.7;;;;;;;5.03;89.09668;932.1795;;;;
2020/10/27 04:46:48;;;;;;;0.6;0.6;;;;;;;4.91;89.09277;932.2075;;;;
2020/10/27 04:49:16;;;;;;;0.9;0.8;;;;;;;4.9;89.43066;932.2302;;;;
2020/10/27 04:51:41;;;;;;;0.9;0.7;;;;;;;4.97;89.56641;932.1526;;;;
2020/10/27 04:54:10;;;;;;;0.9;0.6;;;;;;;5.08;89.78223;932.0952;;;;
2020/10/27 04:56:35;;;;;;;0.4;0.4;;;;;;;5.15;88.74707;932.0153;;;;
2020/10/27 04:59:01;;;;;;;0.8;0.6;;;;;;;5.25;88.25098;932.0366;;;;
2020/10/27 05:01:29;;;;;;;1;0.6;;;;;;;5.18;87.2793;932.1217;;;;
2020/10/27 05:03:54;;;;;;;0.7;0.5;;;;;;;4.98;87.89063;932.2011;;;;
2020/10/27 05:06:19;;;;;;;0.4;0.4;;;;;;;4.79;88.67188;932.3292;;;;
2020/10/27 05:08:45;;;;;;;1.1;0.5;;;;;;;4.76;89.26563;932.3295;;;;
2020/10/27 05:11:11;;;;;;;0.5;0.5;;;;;;;4.77;89.29004;932.303;;;;
2020/10/27 05:13:43;;;;;;;0.3;0.3;;;;;;;4.72;89.25781;932.2727;;;;
2020/10/27 05:16:47;;;;;;;0.4;0.4;;;;;;;4.73;89.43848;932.1649;;;;
2020/10/27 05:18:48;;;;;;;0.3;0.3;;;;;;;4.87;89.52441;932.09;;;;
2020/10/27 05:20:57;;;;;;;0.4;0.4;;;;;;;4.81;89.25098;932.2006;;;;
2020/10/27 05:23:26;;;;;;;0.7;0.4;;;;;;;4.65;89.79297;932.2726;;;;
2020/10/27 05:25:51;;;;;;;0.9;0.6;;;;;;;4.54;90.31055;932.2377;;;;
2020/10/27 05:28:20;;;;;;;2.1;0.9;;;;;;;4.72;90.17969;932.3152;;;;
2020/10/27 05:30:49;;;;;;;1;0.8;;;;;;;4.91;89.69043;932.3787;;;;
2020/10/27 05:33:17;;;;;;;1.7;1;;;;;;;5.1;89.51758;932.3884;;;;
2020/10/27 05:35:45;;;;;;;1.5;1;;;;;;;5.18;89.05957;932.3655;;;;
2020/10/27 05:38:14;;;;;;;1.9;1;;;;;;;5.19;89.00488;932.3633;;;;
2020/10/27 05:40:39;;;;;;;1.4;1.1;;;;;;;4.91;89.18359;932.4395;;;;
2020/10/27 05:43:07;;;;;;;0.7;0.6;;;;;;;4.9;89.82324;932.6222;;;;
2020/10/27 05:45:37;;;;;;;1;0.8;;;;;;;5;89.65332;932.6361;;;;
2020/10/27 05:48:02;;;;;;;0.7;0.6;;;;;;;4.95;89.58691;932.7478;;;;
2020/10/27 05:50:31;;;;;;;1.3;0.7;;;;;;;5.01;89.91406;932.8434;;;;
2020/10/27 05:52:56;;;;;;;1.2;0.7;;;;;;;5.06;89.75586;932.7372;;;;
2020/10/27 05:55:29;;;;;;;0.5;0.5;;;;;;;5.19;89.52344;932.6908;;;;
2020/10/27 05:57:58;;;;;;;0.3;0.3;;;;;;;5.19;89.81641;932.6261;;;;
2020/10/27 06:00:35;;;;;;;0.3;0.3;;;;;;;5.12;90.20898;932.6129;;;;
2020/10/27 06:02:59;;;;;;;0.3;0.3;;;;;;;5.19;89.89551;932.7469;;;;
2020/10/27 06:05:31;;;;;;;0.2;0.2;;;;;;;5.21;88.91797;932.7656;;;;
2020/10/27 06:07:55;;;;;;;0.5;0.4;;;;;;;5.26;88.34277;932.7335;;;;
2020/10/27 06:10:19;;;;;;;0.4;0.4;;;;;;;5.26;87.64355;932.634;;;;
2020/10/27 06:12:44;;;;;;;0.6;0.3;;;;;;;5.27;87.33984;932.7163;;;;
2020/10/27 06:15:25;;;;;;;0.1;0.1;;;;;;;5.27;88.17383;932.6642;;;;
2020/10/27 06:17:53;;;;;;;0.3;0.3;;;;;;;5.19;88.76758;932.7753;;;;
2020/10/27 06:20:24;;;;;;;0.3;0.3;;;;;;;5.23;88.87891;932.9233;;;;
2020/10/27 06:22:50;;;;;;;0.5;0.5;;;;;;;5.2;89.06348;932.882;;;;
2020/10/27 06:25:18;;;;;;;0.6;0.5;;;;;;;5.11;88.91113;932.7997;;;;
2020/10/27 06:27:44;;;;;;;1.1;0.7;;;;;;;5.1;89.3584;932.82;;;;
2020/10/27 06:30:09;;;;;;;3.7;1.7;;;;;;;5.04;89.81836;932.9236;;;;
2020/10/27 06:32:36;;;;;;;4.6;2;;;;;;;5.06;90.13965;932.9028;;;;
2020/10/27 06:35:01;;;;;;;2;1.3;;;;;;;5.09;89.88574;932.8711;;;;
2020/10/27 06:37:26;;;;;;;1;0.7;;;;;;;4.93;90.18945;932.9194;;;;
2020/10/27 06:39:51;;;;;;;1.1;0.7;;;;;;;4.91;90.23145;933.1202;;;;
2020/10/27 06:42:16;;;;;;;1.2;0.8;;;;;;;5.04;90.44043;932.9443;;;;
2020/10/27 06:44:45;;;;;;;6.2;0.8;;;;;;;5.21;90.19238;932.9733;;;;
2020/10/27 06:47:15;;;;;;;1.7;1;;;;;;;5.35;89.61426;933.055;;;;
2020/10/27 06:49:40;;;;;;;1;0.6;;;;;;;5.42;89.19824;933.157;;;;
2020/10/27 06:52:09;;;;;;;1.7;1;;;;;;;5.53;88.69238;933.0748;;;;
2020/10/27 06:54:40;;;;;;;0.9;0.7;;;;;;;5.68;88.88086;933.1135;;;;
2020/10/27 06:57:05;;;;;;;4.7;1.2;;;;;;;5.76;88.59473;933.2004;;;;
2020/10/27 06:59:30;;;;;;;2.4;1.2;;;;;;;5.93;88.00684;933.2419;;;;
2020/10/27 07:01:55;;;;;;;1.8;1.1;;;;;;;6;86.79004;933.3452;;;;
2020/10/27 07:04:26;;;;;;;28.4;13.9;;;;;;;6.01;86.86035;933.3947;;;;
2020/10/27 07:06:51;;;;;;;160.3;80.1;;;;;;;5.88;87.80371;933.4097;;;;
2020/10/27 07:09:21;;;;;;;5.5;3;;;;;;;5.85;88.10352;933.3444;;;;
2020/10/27 07:11:50;;;;;;;0.7;0.6;;;;;;;5.88;87.7832;933.3292;;;;
2020/10/27 07:14:15;;;;;;;0.8;0.6;;;;;;;6.05;87.64844;933.3165;;;;
2020/10/27 07:16:40;;;;;;;0.7;0.5;;;;;;;6.17;87.01563;933.2924;;;;
2020/10/27 07:19:08;;;;;;;0.3;0.3;;;;;;;6.15;85.65723;933.3118;;;;
2020/10/27 07:21:33;;;;;;;0.8;0.4;;;;;;;6.12;85.70801;933.3153;;;;
2020/10/27 07:23:58;;;;;;;0.3;0.3;;;;;;;6.18;86.00195;933.4776;;;;
2020/10/27 07:26:25;;;;;;;1.6;0.8;;;;;;;6.22;86.0791;933.5158;;;;
2020/10/27 07:28:50;;;;;;;1;0.7;;;;;;;6.21;85.3877;933.503;;;;
2020/10/27 07:31:21;;;;;;;0.4;0.4;;;;;;;6.24;85.2002;933.4869;;;;
2020/10/27 07:33:51;;;;;;;0.9;0.8;;;;;;;6.37;85.17871;933.4361;;;;
2020/10/27 07:36:19;;;;;;;0.8;0.5;;;;;;;6.53;85.03223;933.3933;;;;
2020/10/27 07:38:44;;;;;;;1;0.6;;;;;;;6.68;84.94922;933.3027;;;;
2020/10/27 07:41:12;;;;;;;0.6;0.6;;;;;;;6.69;83.31055;933.5109;;;;
2020/10/27 07:43:37;;;;;;;4.5;0.9;;;;;;;6.83;84.68359;933.5584;;;;
2020/10/27 07:46:04;;;;;;;5.9;1;;;;;;;6.71;83.21191;933.5048;;;;
2020/10/27 07:48:38;;;;;;;0.7;0.6;;;;;;;6.7;83.51563;933.4817;;;;
2020/10/27 07:50:59;;;;;;;1.2;0.5;;;;;;;6.72;83.48535;933.4283;;;;
2020/10/27 07:53:24;;;;;;;4;0.8;;;;;;;6.86;83.80566;933.4314;;;;
2020/10/27 07:55:57;;;;;;;0.9;0.6;;;;;;;6.71;82.5332;933.5776;;;;
2020/10/27 07:58:22;;;;;;;1.1;0.7;;;;;;;;;;;;;
2020/10/27 08:00:48;;;;;;;0.8;0.6;;;;;;;;;;;;;
2020/10/27 08:03:13;;;;;;;2.6;0.7;;;;;;;;;;;;;
2020/10/27 08:05:38;;;;;;;0.7;0.7;;;;;;;;;;;;;
2020/10/27 08:08:04;;;;;;;0.8;0.7;;;;;;;;;;;;;
2020/10/27 08:10:29;;;;;;;0.7;0.6;;;;;;;;;;;;;
2020/10/27 08:12:54;;;;;;;0.7;0.6;;;;;;;;;;;;;
2020/10/27 08:15:20;;;;;;;1.3;0.5;;;;;;;;;;;;;
2020/10/27 08:17:47;;;;;;;0.6;0.5;;;;;;;;;;;;;
2020/10/27 08:20:11;;;;;;;2.7;1;;;;;;;;;;;;;
2020/10/27 08:22:37;;;;;;;0.7;0.6;;;;;;;;;;;;;
2020/10/27 08:25:03;;;;;;;1.2;0.5;;;;;;;;;;;;;
2020/10/27 08:27:29;;;;;;;0.3;0.3;;;;;;;;;;;;;
2020/10/27 08:29:54;;;;;;;1.4;0.7;;;;;;;;;;;;;
2020/10/27 08:32:21;;;;;;;1;0.2;;;;;;;;;;;;;
2020/10/27 08:34:46;;;;;;;0.6;0.3;;;;;;;;;;;;;
2020/10/27 08:37:13;;;;;;;0.5;0.4;;;;;;;;;;;;;
2020/10/27 08:39:38;;;;;;;1.5;0.6;;;;;;;;;;;;;
2020/10/27 08:42:04;;;;;;;0.7;0.6;;;;;;;;;;;;;
2020/10/27 08:44:29;;;;;;;0.9;0.7;;;;;;;;;;;;;
2020/10/27 08:46:55;;;;;;;1.3;0.8;;;;;;;;;;;;;
2020/10/27 08:49:20;;;;;;;0.9;0.6;;;;;;;;;;;;;
2020/10/27 08:51:46;;;;;;;0.9;0.8;;;;;;;;;;;;;
2020/10/27 08:54:11;;;;;;;3.4;1;;;;;;;;;;;;;
2020/10/27 08:56:36;;;;;;;1.5;1.1;;;;;;;;;;;;;
2020/10/27 08:59:01;;;;;;;2.5;1.2;;;;;;;;;;;;;
2020/10/27 09:01:26;;;;;;;2.9;0.8;;;;;;;;;;;;;
2020/10/27 09:03:51;;;;;;;1.6;1.1;;;;;;;;;;;;;
2020/10/27 09:06:16;;;;;;;3.2;1.1;;;;;;;;;;;;;
2020/10/27 09:08:43;;;;;;;1.4;0.9;;;;;;;;;;;;;
2020/10/27 09:11:08;;;;;;;0.8;0.7;;;;;;;;;;;;;
2020/10/27 09:13:34;;;;;;;0.7;0.6;;;;;;;;;;;;;
2020/10/27 09:15:59;;;;;;;0.5;0.4;;;;;;;;;;;;;
2020/10/27 09:18:25;;;;;;;1.2;0.4;;;;;;;;;;;;;
2020/10/27 09:20:51;;;;;;;0.8;0.5;;;;;;;;;;;;;
2020/10/27 09:23:16;;;;;;;0.4;0.3;;;;;;;;;;;;;
2020/10/27 09:25:42;;;;;;;1.2;0.4;;;;;;;;;;;;;
2020/10/27 09:28:07;;;;;;;2.6;0.9;;;;;;;;;;;;;
2020/10/27 09:30:33;;;;;;;1.1;0.5;;;;;;;;;;;;;
2020/10/27 09:32:59;;;;;;;1.4;0.7;;;;;;;;;;;;;
2020/10/27 09:35:24;;;;;;;1;0.8;;;;;;;;;;;;;
2020/10/27 09:37:51;;;;;;;1.2;0.6;;;;;;;;;;;;;
2020/10/27 09:40:16;;;;;;;0.7;0.5;;;;;;;;;;;;;
2020/10/27 09:42:41;;;;;;;0.6;0.6;;;;;;;;;;;;;
2020/10/27 09:45:06;;;;;;;0.6;0.5;;;;;;;;;;;;;
2020/10/27 09:47:31;;;;;;;1.2;0.8;;;;;;;;;;;;;
2020/10/27 09:49:56;;;;;;;1.3;0.8;;;;;;;;;;;;;
2020/10/27 09:52:21;;;;;;;0.4;0.3;;;;;;;;;;;;;
2020/10/27 09:54:48;;;;;;;0.4;0.4;;;;;;;;;;;;;
2020/10/27 09:57:12;;;;;;;0.5;0.3;;;;;;;;;;;;;
2020/10/27 09:59:40;;;;;;;1.5;0.5;;;;;;;;;;;;;
2020/10/27 10:02:05;;;;;;;0.4;0.3;;;;;;;;;;;;;
2020/10/27 10:04:31;;;;;;;0.2;0.2;;;;;;;;;;;;;
2020/10/27 10:06:56;;;;;;;0.1;0.1;;;;;;;;;;;;;
2020/10/27 10:09:23;;;;;;;0.3;0.3;;;;;;;;;;;;;
2020/10/27 10:11:48;;;;;;;0.3;0.2;;;;;;;;;;;;;
2020/10/27 10:14:13;;;;;;;0.1;0.1;;;;;;;;;;;;;
2020/10/27 10:16:38;;;;;;;0.2;0.2;;;;;;;;;;;;;
2020/10/27 10:19:06;;;;;;;0.2;0.1;;;;;;;;;;;;;
2020/10/27 10:21:31;;;;;;;0.3;0.2;;;;;;;;;;;;;
2020/10/27 10:23:58;;;;;;;1.7;0.4;;;;;;;;;;;;;
2020/10/27 10:26:23;;;;;;;0.3;0.2;;;;;;;;;;;;;
2020/10/27 10:28:48;;;;;;;0.2;0.1;;;;;;;;;;;;;
2020/10/27 10:31:13;;;;;;;0.4;0.2;;;;;;;;;;;;;
2020/10/27 10:33:38;;;;;;;0.4;0.2;;;;;;;;;;;;;
2020/10/27 10:36:03;;;;;;;0.2;0.2;;;;;;;;;;;;;
2020/10/27 10:38:29;;;;;;;0.5;0.4;;;;;;;;;;;;;
2020/10/27 10:40:54;;;;;;;0;0;;;;;;;;;;;;;
2020/10/27 10:43:22;;;;;;;0.2;0.2;;;;;;;;;;;;;
2020/10/27 10:45:53;;;;;;;0.5;0.2;;;;;;;;;;;;;
2020/10/27 10:48:19;;;;;;;0.2;0.1;;;;;;;;;;;;;
2020/10/27 10:50:47;;;;;;;0.2;0.2;;;;;;;;;;;;;
2020/10/27 10:53:13;;;;;;;0.1;0.1;;;;;;;;;;;;;
2020/10/27 10:55:38;;;;;;;0.3;0.3;;;;;;;;;;;;;
2020/10/27 10:58:06;;;;;;;6.4;0.1;;;;;;;;;;;;;
2020/10/27 11:00:31;;;;;;;0.2;0.2;;;;;;;;;;;;;
2020/10/27 11:02:57;;;;;;;0.3;0.2;;;;;;;;;;;;;
2020/10/27 11:05:23;;;;;;;0.1;0.1;;;;;;;;;;;;;
2020/10/27 11:07:49;;;;;;;0.8;0.1;;;;;;;;;;;;;
2020/10/27 11:10:15;;;;;;;0.4;0.1;;;;;;;;;;;;;
2020/10/27 11:12:41;;;;;;;0.7;0.3;;;;;;;;;;;;;
2020/10/27 11:15:06;;;;;;;0.1;0.1;;;;;;;;;;;;;
2020/10/27 11:17:32;;;;;;;0;0;;;;;;;;;;;;;
2020/10/27 11:19:57;;;;;;;0;0;;;;;;;;;;;;;
2020/10/27 11:22:24;;;;;;;0.2;0;;;;;;;;;;;;;
2020/10/27 11:24:49;;;;;;;0.6;0.2;;;;;;;;;;;;;
2020/10/27 11:27:15;;;;;;;0.1;0.1;;;;;;;;;;;;;
2020/10/27 11:29:40;;;;;;;0;0;;;;;;;;;;;;;
2020/10/27 11:32:06;;;;;;;0;0;;;;;;;;;;;;;
2020/10/27 11:34:31;;;;;;;0.4;0.2;;;;;;;;;;;;;
2020/10/27 11:36:57;;;;;;;0.5;0.2;;;;;;;;;;;;;
2020/10/27 11:39:22;;;;;;;2.6;1.3;;;;;;;;;;;;;
2020/10/27 11:41:48;;;;;;;0.2;0;;;;;;;;;;;;;
2020/10/27 11:44:12;;;;;;;0.3;0.1;;;;;;;;;;;;;
2020/10/27 11:46:38;;;;;;;0.2;0.1;;;;;;;;;;;;;
2020/10/27 11:49:03;;;;;;;0;0;;;;;;;;;;;;;
2020/10/27 11:51:30;;;;;;;0.2;0.1;;;;;;;;;;;;;
2020/10/27 11:53:55;;;;;;;0.8;0.4;;;;;;;;;;;;;
2020/10/27 11:56:20;;;;;;;0;0;;;;;;;;;;;;;
2020/10/27 11:58:45;;;;;;;3.2;0.2;;;;;;;;;;;;;
2020/10/27 12:01:11;;;;;;;1.6;0.4;;;;;;;;;;;;;
2020/10/27 12:03:37;;;;;;;0.4;0.3;;;;;;;;;;;;;
2020/10/27 12:06:02;;;;;;;0.2;0.2;;;;;;;;;;;;;
2020/10/27 12:08:28;;;;;;;0.1;0;;;;;;;;;;;;;
2020/10/27 12:10:53;;;;;;;0.3;0.2;;;;;;;;;;;;;
2020/10/27 12:13:19;;;;;;;1;0.3;;;;;;;;;;;;;
2020/10/27 12:15:44;;;;;;;1.2;0.6;;;;;;;;;;;;;
2020/10/27 12:18:12;;;;;;;0.1;0.1;;;;;;;;;;;;;
2020/10/27 12:20:36;;;;;;;0;0;;;;;;;;;;;;;
2020/10/27 12:23:03;;;;;;;0.8;0.2;;;;;;;;;;;;;
2020/10/27 12:25:27;;;;;;;0.6;0.3;;;;;;;;;;;;;
2020/10/27 12:27:53;;;;;;;0.1;0.1;;;;;;;;;;;;;
2020/10/27 12:30:22;;;;;;;0.1;0.1;;;;;;;;;;;;;
2020/10/27 12:32:47;;;;;;;0.2;0.1;;;;;;;;;;;;;
2020/10/27 12:35:12;;;;;;;0.1;0.1;;;;;;;;;;;;;
2020/10/27 12:37:37;;;;;;;0.1;0.1;;;;;;;;;;;;;
2020/10/27 12:40:03;;;;;;;0.1;0.1;;;;;;;;;;;;;
2020/10/27 12:42:28;;;;;;;0.3;0.3;;;;;;;;;;;;;
2020/10/27 12:44:53;;;;;;;0.7;0.3;;;;;;;;;;;;;
2020/10/27 12:47:18;;;;;;;0;0;;;;;;;;;;;;;
2020/10/27 12:49:44;;;;;;;0.5;0.5;;;;;;;;;;;;;
2020/10/27 12:52:09;;;;;;;0;0;;;;;;;;;;;;;
2020/10/27 12:54:34;;;;;;;0;0;;;;;;;;;;;;;
2020/10/27 12:56:59;;;;;;;0.2;0.1;;;;;;;;;;;;;
2020/10/27 12:59:25;;;;;;;0.5;0.3;;;;;;;;;;;;;
2020/10/27 13:01:50;;;;;;;0.1;0;;;;;;;;;;;;;
2020/10/27 13:04:16;;;;;;;0.1;0;;;;;;;;;;;;;
2020/10/27 13:06:42;;;;;;;0.1;0.1;;;;;;;;;;;;;
2020/10/27 13:09:07;;;;;;;1.6;0.4;;;;;;;;;;;;;
2020/10/27 13:11:33;;;;;;;0.5;0.5;;;;;;;;;;;;;
2020/10/27 13:13:59;;;;;;;0.6;0.3;;;;;;;;;;;;;
2020/10/27 13:16:24;;;;;;;0.2;0.2;;;;;;;;;;;;;
2020/10/27 13:18:50;;;;;;;0;0;;;;;;;;;;;;;
2020/10/27 13:21:16;;;;;;;0;0;;;;;;;;;;;;;
2020/10/27 13:23:42;;;;;;;1.1;0.1;;;;;;;;;;;;;
2020/10/27 13:26:09;;;;;;;0.9;0.2;;;;;;;;;;;;;
2020/10/27 13:28:33;;;;;;;0;0;;;;;;;;;;;;;
2020/10/27 13:30:58;;;;;;;0.2;0.2;;;;;;;;;;;;;
2020/10/27 13:33:25;;;;;;;0;0;;;;;;;;;;;;;
2020/10/27 13:35:50;;;;;;;0.5;0.1;;;;;;;;;;;;;
2020/10/27 13:38:21;;;;;;;0.1;0.1;;;;;;;;;;;;;
2020/10/27 13:40:48;;;;;;;0.6;0.2;;;;;;;;;;;;;
2020/10/27 13:43:13;;;;;;;0.4;0.3;;;;;;;;;;;;;
2020/10/27 13:45:38;;;;;;;0.2;0.2;;;;;;;;;;;;;
2020/10/27 13:48:03;;;;;;;0.3;0.2;;;;;;;;;;;;;
2020/10/27 13:50:28;;;;;;;0.6;0.2;;;;;;;;;;;;;
2020/10/27 13:52:53;;;;;;;0.1;0.1;;;;;;;;;;;;;
2020/10/27 13:55:19;;;;;;;0.8;0.3;;;;;;;;;;;;;
2020/10/27 13:57:45;;;;;;;0.2;0.1;;;;;;;;;;;;;
2020/10/27 14:00:19;;;;;;;0.1;0.1;;;;;;;;;;;;;
2020/10/27 14:02:44;;;;;;;0.3;0.3;;;;;;;;;;;;;
2020/10/27 14:05:09;;;;;;;0.5;0.2;;;;;;;;;;;;;
2020/10/27 14:07:34;;;;;;;2.6;0.5;;;;;;;;;;;;;
2020/10/27 14:09:59;;;;;;;0.1;0.1;;;;;;;;;;;;;
2020/10/27 14:12:25;;;;;;;0.3;0.2;;;;;;;;;;;;;
2020/10/27 14:14:50;;;;;;;0.3;0.2;;;;;;;;;;;;;
2020/10/27 14:17:17;;;;;;;0.4;0.3;;;;;;;;;;;;;
2020/10/27 14:19:42;;;;;;;0.1;0.1;;;;;;;;;;;;;
2020/10/27 14:22:09;;;;;;;0.5;0.3;;;;;;;;;;;;;
2020/10/27 14:24:34;;;;;;;0.6;0.5;;;;;;;;;;;;;
2020/10/27 14:27:00;;;;;;;2.5;1;;;;;;;;;;;;;
2020/10/27 14:29:25;;;;;;;1.7;0.5;;;;;;;;;;;;;
2020/10/27 14:31:51;;;;;;;0.1;0.1;;;;;;;;;;;;;
2020/10/27 14:34:16;;;;;;;1.1;0.3;;;;;;;;;;;;;
2020/10/27 14:36:54;;;;;;;0.5;0.2;;;;;;;;;;;;;
2020/10/27 14:39:07;;;;;;;0.1;0.1;;;;;;;;;;;;;
2020/10/27 14:41:34;;;;;;;0.5;0.3;;;;;;;;;;;;;
2020/10/27 14:43:59;;;;;;;1.7;0.4;;;;;;;;;;;;;
2020/10/27 14:46:25;;;;;;;0.5;0.1;;;;;;;;;;;;;
2020/10/27 14:48:50;;;;;;;0.7;0.3;;;;;;;;;;;;;
2020/10/27 14:51:17;;;;;;;2.6;0.3;;;;;;;;;;;;;
2020/10/27 14:53:42;;;;;;;0.3;0.2;;;;;;;;;;;;;
2020/10/27 14:56:07;;;;;;;0.3;0.2;;;;;;;;;;;;;
2020/10/27 14:58:32;;;;;;;1.1;0.4;;;;;;;;;;;;;
2020/10/27 15:01:00;;;;;;;0.3;0.2;;;;;;;;;;;;;
2020/10/27 15:03:25;;;;;;;0.4;0.1;;;;;;;;;;;;;
2020/10/27 15:05:52;;;;;;;0.3;0.2;;;;;;;;;;;;;
2020/10/27 15:08:17;;;;;;;0.6;0.6;;;;;;;;;;;;;
2020/10/27 15:10:42;;;;;;;0.1;0.1;;;;;;;;;;;;;
2020/10/27 15:13:07;;;;;;;0.5;0.4;;;;;;;;;;;;;
2020/10/27 15:15:35;;;;;;;1.6;0.1;;;;;;;;;;;;;
2020/10/27 15:18:00;;;;;;;1.9;0.4;;;;;;;;;;;;;
2020/10/27 15:20:25;;;;;;;0.5;0.3;;;;;;;;;;;;;
2020/10/27 15:22:50;;;;;;;0.2;0.2;;;;;;;;;;;;;
2020/10/27 15:25:16;;;;;;;0.3;0.3;;;;;;;;;;;;;
2020/10/27 15:27:41;;;;;;;0.5;0.3;;;;;;;;;;;;;
2020/10/27 15:30:11;;;;;;;0.9;0.6;;;;;;;;;;;;;
2020/10/27 15:32:37;;;;;;;0.3;0.3;;;;;;;;;;;;;
2020/10/27 15:35:03;;;;;;;0.3;0.2;;;;;;;;;;;;;
2020/10/27 15:37:28;;;;;;;0.4;0.3;;;;;;;;;;;;;
2020/10/27 15:39:53;;;;;;;0.7;0.4;;;;;;;;;;;;;
2020/10/27 15:42:19;;;;;;;1.7;0.3;;;;;;;;;;;;;
2020/10/27 15:44:45;;;;;;;0.7;0.4;;;;;;;;;;;;;
2020/10/27 15:47:11;;;;;;;0.4;0.4;;;;;;;;;;;;;
2020/10/27 15:49:36;;;;;;;4.5;0.4;;;;;;;;;;;;;
2020/10/27 15:52:02;;;;;;;0.8;0.6;;;;;;;;;;;;;
2020/10/27 15:54:27;;;;;;;0.2;0.2;;;;;;;;;;;;;
2020/10/27 15:56:54;;;;;;;1;0.7;;;;;;;;;;;;;
2020/10/27 15:59:18;;;;;;;2.2;0.9;;;;;;;;;;;;;
2020/10/27 16:01:43;;;;;;;2.3;1.1;;;;;;;;;;;;;
2020/10/27 16:04:09;;;;;;;2.6;0.9;;;;;;;;;;;;;
2020/10/27 16:06:34;;;;;;;1.2;0.4;;;;;;;;;;;;;
2020/10/27 16:08:59;;;;;;;1.3;0.8;;;;;;;;;;;;;
2020/10/27 16:11:24;;;;;;;3.4;0.9;;;;;;;;;;;;;
2020/10/27 16:13:49;;;;;;;2.3;0.9;;;;;;;;;;;;;
2020/10/27 16:16:15;;;;;;;3.4;1;;;;;;;;;;;;;
2020/10/27 16:18:40;;;;;;;1.7;0.9;;;;;;;;;;;;;
2020/10/27 16:21:06;;;;;;;2.2;1;;;;;;;;;;;;;
2020/10/27 16:23:31;;;;;;;4.3;1.2;;;;;;;;;;;;;
2020/10/27 16:25:57;;;;;;;1.1;0.9;;;;;;;;;;;;;
2020/10/27 16:28:22;;;;;;;1;0.9;;;;;;;;;;;;;
2020/10/27 16:30:47;;;;;;;1.6;1.2;;;;;;;;;;;;;
2020/10/27 16:33:12;;;;;;;2.6;1.5;;;;;;;;;;;;;
2020/10/27 16:35:37;;;;;;;2.4;1.3;;;;;;;;;;;;;
2020/10/27 16:38:02;;;;;;;6.9;2.4;;;;;;;;;;;;;
2020/10/27 16:40:28;;;;;;;4.1;2.2;;;;;;;;;;;;;
2020/10/27 16:42:53;;;;;;;4.7;1.5;;;;;;;;;;;;;
2020/10/27 16:45:18;;;;;;;2.5;1.5;;;;;;;;;;;;;
2020/10/27 16:47:45;;;;;;;1.1;1;;;;;;;;;;;;;
2020/10/27 16:50:11;;;;;;;5.8;1.7;;;;;;;;;;;;;
2020/10/27 16:52:37;;;;;;;1.3;1;;;;;;;;;;;;;
2020/10/27 16:55:02;;;;;;;2.2;1.6;;;;;;;;;;;;;
2020/10/27 16:57:27;;;;;;;5.6;2.4;;;;;;;;;;;;;
2020/10/27 16:59:53;;;;;;;6.1;2.1;;;;;;;;;;;;;
2020/10/27 17:02:19;;;;;;;4.2;1.9;;;;;;;;;;;;;
2020/10/27 17:04:44;;;;;;;3.5;1.5;;;;;;;;;;;;;
2020/10/27 17:07:09;;;;;;;7.5;1.9;;;;;;;;;;;;;
2020/10/27 17:09:34;;;;;;;3.2;1.7;;;;;;;;;;;;;
2020/10/27 17:12:01;;;;;;;4.3;2.5;;;;;;;;;;;;;
2020/10/27 17:14:26;;;;;;;6.4;3.6;;;;;;;;;;;;;
2020/10/27 17:16:53;;;;;;;3.7;2.1;;;;;;;;;;;;;
2020/10/27 17:19:18;;;;;;;2.8;1.5;;;;;;;;;;;;;
2020/10/27 17:21:47;;;;;;;2.7;1.3;;;;;;;;;;;;;
2020/10/27 17:24:24;;;;;;;1.4;1.1;;;;;;;;;;;;;
2020/10/27 17:27:04;;;;;;;3.1;1.6;;;;;;;;;;;;;
2020/10/27 17:29:56;;;;;;;3;1.9;;;;;;;;;;;;;
2020/10/27 17:36:28;;;;;;;4.3;2.2;;;;;;;;;;;;;
2020/10/27 17:38:44;;;;;;;4.3;2;;;;;;;;;;;;;
2020/10/27 17:41:10;;;;;;;2.9;1.9;;;;;;;;;;;;;
2020/10/27 17:43:34;;;;;;;1.8;1.6;;;;;;;;;;;;;
2020/10/27 17:45:59;;;;;;;5.1;2.3;;;;;;;;;;;;;
2020/10/27 17:48:24;;;;;;;14.8;7;;;;;;;;;;;;;
2020/10/27 17:50:51;;;;;;;16.2;6.8;;;;;;;;;;;;;
2020/10/27 17:53:16;;;;;;;9.2;4.5;;;;;;;;;;;;;
2020/10/27 17:55:43;;;;;;;3.6;2;;;;;;;;;;;;;
2020/10/27 17:58:07;;;;;;;5.1;1.5;;;;;;;;;;;;;
2020/10/27 18:00:33;;;;;;;1.4;1.1;;;;;;;;;;;;;
2020/10/27 18:02:58;;;;;;;2.5;1.4;;;;;;;;;;;;;
2020/10/27 18:05:23;;;;;;;3.3;1.5;;;;;;;;;;;;;
2020/10/27 18:07:48;;;;;;;2.1;1.4;;;;;;;;;;;;;
2020/10/27 18:10:14;;;;;;;1.6;1.3;;;;;;;;;;;;;
2020/10/27 18:12:39;;;;;;;2.1;1.3;;;;;;;;;;;;;
2020/10/27 18:15:04;;;;;;;3.3;1.4;;;;;;;;;;;;;
2020/10/27 18:17:30;;;;;;;1.9;1.3;;;;;;;;;;;;;
2020/10/27 18:19:55;;;;;;;3.8;1.8;;;;;;;;;;;;;
2020/10/27 18:22:39;;;;;;;2.8;1.6;;;;;;;;;;;;;
2020/10/27 18:25:09;;;;;;;3.1;1.9;;;;;;;;;;;;;
2020/10/27 18:29:53;;;;;;;3.6;2.5;;;;;;;;;;;;;
2020/10/27 18:33:28;;;;;;;23.4;9.6;;;;;;;;;;;;;
2020/10/27 18:34:29;;;;;;;34.4;12.4;;;;;;;;;;;;;
2020/10/27 18:36:53;;;;;;;28.3;9.8;;;;;;;;;;;;;
2020/10/27 18:39:20;;;;;;;28.3;9.3;;;;;;;;;;;;;
2020/10/27 18:41:44;;;;;;;13.3;4.9;;;;;;;;;;;;;
2020/10/27 18:44:11;;;;;;;29.8;5.8;;;;;;;;;;;;;
2020/10/27 18:46:36;;;;;;;5.4;2.8;;;;;;;;;;;;;
2020/10/27 18:49:03;;;;;;;6.3;2.9;;;;;;;;;;;;;
2020/10/27 18:51:28;;;;;;;5.4;3;;;;;;;;;;;;;
2020/10/27 18:53:53;;;;;;;3.7;2.2;;;;;;;;;;;;;
2020/10/27 18:56:18;;;;;;;5.8;2.5;;;;;;;;;;;;;
2020/10/27 18:58:44;;;;;;;8.3;4.1;;;;;;;;;;;;;
2020/10/27 19:01:10;;;;;;;5.2;2.9;;;;;;;;;;;;;
2020/10/27 19:03:37;;;;;;;5.6;2.8;;;;;;;;;;;;;
2020/10/27 19:06:01;;;;;;;3.4;2.2;;;;;;;;;;;;;